createdAt,value
2018-01-27T00:02:02.191Z,26.83
2018-01-27T00:04:30.589Z,24.23
2018-01-27T00:06:58.988Z,30.23
2018-01-27T00:09:27.466Z,29.67
2018-01-27T00:11:55.850Z,28.33
2018-01-27T00:14:24.272Z,30.20
2018-01-27T00:16:52.708Z,28.30
2018-01-27T00:19:21.116Z,27.27
2018-01-27T00:21:49.519Z,27.77
2018-01-27T00:24:17.969Z,29.10
2018-01-27T00:26:46.380Z,25.90
2018-01-27T00:29:14.774Z,30.43
2018-01-27T00:31:43.202Z,26.47
2018-01-27T00:34:11.612Z,25.80
2018-01-27T00:36:40.025Z,27.77
2018-01-27T00:39:08.718Z,28.03
2018-01-27T00:41:37.138Z,28.40
2018-01-27T00:44:05.572Z,29.80
2018-01-27T00:46:34.010Z,25.43
2018-01-27T00:49:02.423Z,31.23
2018-01-27T00:51:30.817Z,24.37
2018-01-27T00:53:59.259Z,31.13
2018-01-27T00:56:27.672Z,28.23
2018-01-27T00:58:56.113Z,26.47
2018-01-27T01:01:24.554Z,26.20
2018-01-27T01:03:52.978Z,26.70
2018-01-27T01:06:21.379Z,31.20
2018-01-27T01:08:49.809Z,31.17
2018-01-27T01:11:18.221Z,32.80
2018-01-27T01:13:46.658Z,28.17
2018-01-27T01:16:15.121Z,31.47
2018-01-27T01:18:43.524Z,32.67
2018-01-27T01:21:11.914Z,32.17
2018-01-27T01:23:40.368Z,30.47
2018-01-27T01:26:08.756Z,29.33
2018-01-27T01:28:37.146Z,34.77
2018-01-27T01:31:05.596Z,32.63
2018-01-27T01:33:34.013Z,34.17
2018-01-27T01:36:02.405Z,25.53
2018-01-27T01:38:30.864Z,25.77
2018-01-27T01:40:59.268Z,32.47
2018-01-27T01:43:33.222Z,34.30
2018-01-27T01:46:01.644Z,30.13
2018-01-27T01:48:30.063Z,32.20
2018-01-27T01:50:58.497Z,33.27
2018-01-27T01:53:26.909Z,33.53
2018-01-27T01:55:55.329Z,34.67
2018-01-27T01:58:23.782Z,33.90
2018-01-27T02:00:52.200Z,32.97
2018-01-27T02:03:20.598Z,33.50
2018-01-27T02:05:49.057Z,35.23
2018-01-27T02:08:17.449Z,34.00
2018-01-27T02:10:45.838Z,33.50
2018-01-27T02:13:14.326Z,32.50
2018-01-27T02:15:42.769Z,34.57
2018-01-27T02:18:11.188Z,31.13
2018-01-27T02:20:39.680Z,35.90
2018-01-27T02:23:08.085Z,33.50
2018-01-27T02:25:36.480Z,34.67
2018-01-27T02:28:04.975Z,30.87
2018-01-27T02:30:33.389Z,30.83
2018-01-27T02:33:01.802Z,32.73
2018-01-27T02:35:30.251Z,35.70
2018-01-27T02:37:58.651Z,28.83
2018-01-27T02:40:27.045Z,35.07
2018-01-27T02:42:55.497Z,32.73
2018-01-27T02:45:23.935Z,31.00
2018-01-27T02:47:52.325Z,32.07
2018-01-27T02:50:20.763Z,33.43
2018-01-27T02:52:49.166Z,31.63
2018-01-27T02:55:17.560Z,34.00
2018-01-27T02:57:46.010Z,31.40
2018-01-27T03:00:14.444Z,31.57
2018-01-27T03:02:42.847Z,34.10
2018-01-27T03:05:11.293Z,32.83
2018-01-27T03:07:39.701Z,33.73
2018-01-27T03:10:08.095Z,33.00
2018-01-27T03:12:36.540Z,33.70
2018-01-27T03:15:04.973Z,33.57
2018-01-27T03:17:33.373Z,33.87
2018-01-27T03:20:02.112Z,35.20
2018-01-27T03:22:30.510Z,32.57
2018-01-27T03:24:58.937Z,32.00
2018-01-27T03:27:27.403Z,36.73
2018-01-27T03:29:55.880Z,32.40
2018-01-27T03:32:24.262Z,35.80
2018-01-27T03:34:52.708Z,35.30
2018-01-27T03:37:21.098Z,34.90
2018-01-27T03:39:49.519Z,32.37
2018-01-27T03:42:17.969Z,32.43
2018-01-27T03:44:46.365Z,32.83
2018-01-27T03:47:14.785Z,32.23
2018-01-27T03:49:43.245Z,31.87
2018-01-27T03:52:11.669Z,30.37
2018-01-27T03:54:40.081Z,29.73
2018-01-27T03:57:08.544Z,30.37
2018-01-27T03:59:36.935Z,30.57
2018-01-27T04:02:05.354Z,32.83
2018-01-27T04:04:33.790Z,31.00
2018-01-27T04:07:02.195Z,28.80
2018-01-27T04:09:30.601Z,31.53
2018-01-27T04:11:59.037Z,32.93
2018-01-27T04:14:27.430Z,36.07
2018-01-27T04:16:55.824Z,34.53
2018-01-27T04:19:24.250Z,36.50
2018-01-27T04:21:52.657Z,26.63
2018-01-27T04:24:21.068Z,31.90
2018-01-27T04:26:49.516Z,34.67
2018-01-27T04:29:17.936Z,34.27
2018-01-27T04:31:46.352Z,33.57
2018-01-27T04:34:15.124Z,35.97
2018-01-27T04:36:43.569Z,33.77
2018-01-27T04:39:11.984Z,31.70
2018-01-27T04:41:40.503Z,30.60
2018-01-27T04:44:08.949Z,29.27
2018-01-27T04:46:37.392Z,27.83
2018-01-27T04:49:05.845Z,28.53
2018-01-27T04:51:34.265Z,25.47
2018-01-27T04:54:02.662Z,25.63
2018-01-27T04:56:31.109Z,26.57
2018-01-27T04:58:59.538Z,26.53
2018-01-27T05:01:27.929Z,25.97
2018-01-27T05:03:56.390Z,27.67
2018-01-27T05:06:24.796Z,27.10
2018-01-27T05:08:53.208Z,28.10
2018-01-27T05:11:21.896Z,25.83
2018-01-27T05:13:50.336Z,27.20
2018-01-27T05:16:18.716Z,28.13
2018-01-27T05:18:47.189Z,27.17
2018-01-27T05:21:15.601Z,27.43
2018-01-27T05:23:43.994Z,27.83
2018-01-27T05:26:12.438Z,26.40
2018-01-27T05:28:40.825Z,28.60
2018-01-27T05:31:09.213Z,28.60
2018-01-27T05:33:37.660Z,27.90
2018-01-27T05:36:06.074Z,29.20
2018-01-27T05:38:34.481Z,30.13
2018-01-27T05:41:02.920Z,28.83
2018-01-27T05:43:31.329Z,29.83
2018-01-27T05:45:59.729Z,27.57
2018-01-27T05:48:28.180Z,29.40
2018-01-27T05:50:56.593Z,30.87
2018-01-27T05:53:24.981Z,29.33
2018-01-27T05:55:54.366Z,30.33
2018-01-27T05:58:22.806Z,29.70
2018-01-27T06:00:51.198Z,28.07
2018-01-27T06:03:19.641Z,27.13
2018-01-27T06:05:48.045Z,31.00
2018-01-27T06:08:16.472Z,28.97
2018-01-27T06:10:44.929Z,32.50
2018-01-27T06:13:13.352Z,29.23
2018-01-27T06:15:41.786Z,25.53
2018-01-27T06:18:10.245Z,30.87
2018-01-27T06:20:38.642Z,31.00
2018-01-27T06:23:07.064Z,29.13
2018-01-27T06:25:35.528Z,27.90
2018-01-27T06:28:03.923Z,29.17
2018-01-27T06:30:32.373Z,30.07
2018-01-27T06:33:01.338Z,28.93
2018-01-27T06:35:29.794Z,29.80
2018-01-27T06:37:58.186Z,29.63
2018-01-27T06:40:26.633Z,31.30
2018-01-27T06:42:55.031Z,30.73
2018-01-27T06:45:23.422Z,29.87
2018-01-27T06:47:51.881Z,29.90
2018-01-27T06:50:20.292Z,30.40
2018-01-27T06:52:48.754Z,32.33
2018-01-27T06:55:17.192Z,31.60
2018-01-27T06:57:45.613Z,31.73
2018-01-27T07:00:14.040Z,31.77
2018-01-27T07:02:42.494Z,29.87
2018-01-27T07:05:10.890Z,30.40
2018-01-27T07:07:39.301Z,31.73
2018-01-27T07:10:07.758Z,30.83
2018-01-27T07:12:36.168Z,31.00
2018-01-27T07:15:04.588Z,30.50
2018-01-27T07:17:33.054Z,30.93
2018-01-27T07:20:01.462Z,29.77
2018-01-27T07:22:29.865Z,29.43
2018-01-27T07:24:58.308Z,29.63
2018-01-27T07:27:26.754Z,30.53
2018-01-27T07:29:55.170Z,29.47
2018-01-27T07:32:23.621Z,29.80
2018-01-27T07:34:52.005Z,30.57
2018-01-27T07:37:20.422Z,29.53
2018-01-27T07:39:48.888Z,30.67
2018-01-27T07:42:17.288Z,30.70
2018-01-27T07:44:45.678Z,27.53
2018-01-27T07:47:14.105Z,28.53
2018-01-27T07:49:42.493Z,29.13
2018-01-27T07:52:10.906Z,29.90
2018-01-27T07:54:39.337Z,30.10
2018-01-27T07:57:07.751Z,39.40
2018-01-27T07:59:36.176Z,66.80
2018-01-27T08:02:04.628Z,45.00
2018-01-27T08:04:33.027Z,45.97
2018-01-27T08:07:01.442Z,75.47
2018-01-27T08:09:29.880Z,36.37
2018-01-27T08:11:58.285Z,29.70
2018-01-27T08:14:26.701Z,29.43
2018-01-27T08:16:55.168Z,30.33
2018-01-27T08:19:23.604Z,29.47
2018-01-27T08:21:52.391Z,54.03
2018-01-27T08:24:20.846Z,56.17
2018-01-27T08:26:49.258Z,34.83
2018-01-27T08:29:17.681Z,43.53
2018-01-27T08:31:46.168Z,31.57
2018-01-27T08:34:14.561Z,49.70
2018-01-27T08:36:42.962Z,37.53
2018-01-27T08:39:11.410Z,29.70
2018-01-27T08:41:39.793Z,28.90
2018-01-27T08:44:08.197Z,29.57
2018-01-27T08:46:36.657Z,29.47
2018-01-27T08:49:05.069Z,32.40
2018-01-27T08:51:33.463Z,33.90
2018-01-27T08:54:01.969Z,32.27
2018-01-27T08:56:30.369Z,31.00
2018-01-27T08:58:58.782Z,32.87
2018-01-27T09:01:27.214Z,38.13
2018-01-27T09:03:55.620Z,36.50
2018-01-27T09:06:24.026Z,228.90
2018-01-27T09:08:52.530Z,137.17
2018-01-27T09:11:20.934Z,36.53
2018-01-27T09:13:49.318Z,30.70
2018-01-27T09:16:17.789Z,37.37
2018-01-27T09:18:46.212Z,33.70
2018-01-27T09:21:14.620Z,32.20
2018-01-27T09:23:43.051Z,30.53
2018-01-27T09:26:11.438Z,36.40
2018-01-27T09:28:39.937Z,62.07
2018-01-27T09:31:08.387Z,94.80
2018-01-27T09:33:36.800Z,77.87
2018-01-27T09:36:05.224Z,83.73
2018-01-27T09:38:33.704Z,63.80
2018-01-27T09:41:02.116Z,39.80
2018-01-27T09:43:30.557Z,67.07
2018-01-27T09:45:59.057Z,141.30
2018-01-27T09:48:27.473Z,59.37
2018-01-27T09:50:55.897Z,40.87
2018-01-27T09:53:24.370Z,61.60
2018-01-27T09:55:52.772Z,36.63
2018-01-27T09:58:21.206Z,34.27
2018-01-27T10:00:49.648Z,39.40
2018-01-27T10:03:18.069Z,36.77
2018-01-27T10:05:46.509Z,41.10
2018-01-27T10:08:14.960Z,33.53
2018-01-27T10:10:43.358Z,33.97
2018-01-27T10:13:11.753Z,34.27
2018-01-27T10:15:40.209Z,33.73
2018-01-27T10:18:08.628Z,30.27
2018-01-27T10:20:37.049Z,33.37
2018-01-27T10:23:05.498Z,31.67
2018-01-27T10:25:33.910Z,30.07
2018-01-27T10:28:02.307Z,32.27
2018-01-27T10:30:30.787Z,31.80
2018-01-27T10:32:59.203Z,31.73
2018-01-27T10:35:27.627Z,30.33
2018-01-27T10:37:56.118Z,32.10
2018-01-27T10:40:24.533Z,32.73
2018-01-27T10:42:53.012Z,33.17
2018-01-27T10:45:21.449Z,31.20
2018-01-27T10:47:49.850Z,32.77
2018-01-27T10:50:18.272Z,31.60
2018-01-27T10:52:46.726Z,32.20
2018-01-27T10:55:15.117Z,28.30
2018-01-27T10:57:43.522Z,28.00
2018-01-27T11:00:11.993Z,27.90
2018-01-27T11:02:40.389Z,30.67
2018-01-27T11:05:08.805Z,30.33
2018-01-27T11:07:37.548Z,28.67
2018-01-27T11:10:05.974Z,31.63
2018-01-27T11:12:34.407Z,30.03
2018-01-27T11:15:02.862Z,30.53
2018-01-27T11:17:31.280Z,30.77
2018-01-27T11:19:59.696Z,30.53
2018-01-27T11:22:28.147Z,29.43
2018-01-27T11:24:56.578Z,31.43
2018-01-27T11:27:25.038Z,30.53
2018-01-27T11:29:53.495Z,30.37
2018-01-27T11:32:21.921Z,31.10
2018-01-27T11:34:50.346Z,29.70
2018-01-27T11:37:18.797Z,29.40
2018-01-27T11:39:47.229Z,31.47
2018-01-27T11:42:15.647Z,30.40
2018-01-27T11:44:44.094Z,30.87
2018-01-27T11:47:12.520Z,31.80
2018-01-27T11:49:40.943Z,30.77
2018-01-27T11:52:09.381Z,33.93
2018-01-27T11:54:37.810Z,32.67
2018-01-27T11:57:06.211Z,31.43
2018-01-27T11:59:34.693Z,30.80
2018-01-27T12:02:03.133Z,30.60
2018-01-27T12:04:31.550Z,30.90
2018-01-27T12:07:00.008Z,29.60
2018-01-27T12:09:28.426Z,31.60
2018-01-27T12:11:56.849Z,33.57
2018-01-27T12:14:25.507Z,30.43
2018-01-27T12:16:53.933Z,30.80
2018-01-27T12:19:22.346Z,30.33
2018-01-27T12:21:50.818Z,30.17
2018-01-27T12:24:19.246Z,30.60
2018-01-27T12:26:47.662Z,28.77
2018-01-27T12:29:16.266Z,28.53
2018-01-27T12:31:44.681Z,28.60
2018-01-27T12:34:13.113Z,27.50
2018-01-27T12:36:41.621Z,27.70
2018-01-27T12:39:10.037Z,29.13
2018-01-27T12:41:38.470Z,28.23
2018-01-27T12:44:06.921Z,29.43
2018-01-27T12:46:35.344Z,30.37
2018-01-27T12:49:03.762Z,31.87
2018-01-27T12:51:32.230Z,29.67
2018-01-27T12:54:00.635Z,29.83
2018-01-27T12:56:29.044Z,29.20
2018-01-27T12:58:57.509Z,29.53
2018-01-27T13:01:25.943Z,30.67
2018-01-27T13:03:54.363Z,30.33
2018-01-27T13:06:22.829Z,30.20
2018-01-27T13:08:51.245Z,29.83
2018-01-27T13:11:19.641Z,30.20
2018-01-27T13:13:48.095Z,29.33
2018-01-27T13:16:16.508Z,27.97
2018-01-27T13:18:44.911Z,31.03
2018-01-27T13:21:13.377Z,30.37
2018-01-27T13:23:41.805Z,30.03
2018-01-27T13:26:10.217Z,28.30
2018-01-27T13:28:38.681Z,28.37
2018-01-27T13:31:07.078Z,28.30
2018-01-27T13:33:35.473Z,24.87
2018-01-27T13:36:03.950Z,25.87
2018-01-27T13:38:32.367Z,25.53
2018-01-27T13:41:00.760Z,26.03
2018-01-27T13:43:29.223Z,26.23
2018-01-27T13:45:57.674Z,27.30
2018-01-27T13:48:26.079Z,26.10
2018-01-27T13:50:54.546Z,26.33
2018-01-27T13:53:22.948Z,27.83
2018-01-27T13:55:51.361Z,27.73
2018-01-27T13:58:19.819Z,28.13
2018-01-27T14:00:48.217Z,28.33
2018-01-27T14:03:16.681Z,27.60
2018-01-27T14:05:45.157Z,27.07
2018-01-27T14:08:13.573Z,26.87
2018-01-27T14:10:41.984Z,27.30
2018-01-27T14:13:10.448Z,30.17
2018-01-27T14:15:38.856Z,31.83
2018-01-27T14:18:07.249Z,29.87
2018-01-27T14:20:35.710Z,31.67
2018-01-27T14:23:04.130Z,32.23
2018-01-27T14:25:32.543Z,31.30
2018-01-27T14:28:00.993Z,31.87
2018-01-27T14:30:29.451Z,31.97
2018-01-27T14:32:57.856Z,33.27
2018-01-27T14:35:26.305Z,32.37
2018-01-27T14:37:54.715Z,33.67
2018-01-27T14:40:23.114Z,30.30
2018-01-27T14:42:51.585Z,32.73
2018-01-27T14:45:20.012Z,33.77
2018-01-27T14:47:48.413Z,32.23
2018-01-27T14:50:17.132Z,30.67
2018-01-27T14:52:45.536Z,31.77
2018-01-27T14:55:13.922Z,31.27
2018-01-27T14:57:42.380Z,31.43
2018-01-27T15:00:10.789Z,32.20
2018-01-27T15:02:39.185Z,31.90
2018-01-27T15:05:07.634Z,31.87
2018-01-27T15:07:36.035Z,31.53
2018-01-27T15:10:04.442Z,30.30
2018-01-27T15:12:32.901Z,30.90
2018-01-27T15:15:01.298Z,29.30
2018-01-27T15:17:29.717Z,29.50
2018-01-27T15:19:58.171Z,31.03
2018-01-27T15:22:26.593Z,30.00
2018-01-27T15:24:55.001Z,27.60
2018-01-27T15:27:23.452Z,28.03
2018-01-27T15:29:51.842Z,27.30
2018-01-27T15:32:20.238Z,26.67
2018-01-27T15:34:48.700Z,26.97
2018-01-27T15:37:17.098Z,26.30
2018-01-27T15:39:45.521Z,27.37
2018-01-27T15:42:13.987Z,29.37
2018-01-27T15:44:42.390Z,27.97
2018-01-27T15:47:10.792Z,30.03
2018-01-27T15:49:39.238Z,29.10
2018-01-27T15:52:07.660Z,30.10
2018-01-27T15:54:36.083Z,31.63
2018-01-27T15:57:04.543Z,27.00
2018-01-27T15:59:32.958Z,27.00
2018-01-27T16:02:01.358Z,26.63
2018-01-27T16:04:29.837Z,25.53
2018-01-27T16:06:58.268Z,25.57
2018-01-27T16:09:26.694Z,25.97
2018-01-27T16:11:55.185Z,25.63
2018-01-27T16:14:23.619Z,27.43
2018-01-27T16:16:52.034Z,25.70
2018-01-27T16:19:20.488Z,24.43
2018-01-27T16:21:48.896Z,25.33
2018-01-27T16:24:17.318Z,25.80
2018-01-27T16:26:45.820Z,24.47
2018-01-27T16:29:14.243Z,25.77
2018-01-27T16:31:42.692Z,26.23
2018-01-27T16:34:11.163Z,26.33
2018-01-27T16:36:39.624Z,27.30
2018-01-27T16:39:08.038Z,34.03
2018-01-27T16:41:36.730Z,31.80
2018-01-27T16:44:05.176Z,27.87
2018-01-27T16:46:33.629Z,28.73
2018-01-27T16:49:02.103Z,30.70
2018-01-27T16:51:30.532Z,30.57
2018-01-27T16:53:58.965Z,30.40
2018-01-27T16:56:27.472Z,28.10
2018-01-27T16:58:55.905Z,24.40
2018-01-27T17:01:24.336Z,25.97
2018-01-27T17:03:53.738Z,25.93
2018-01-27T17:06:22.146Z,25.63
2018-01-27T17:08:50.560Z,24.50
2018-01-27T17:11:22.059Z,24.87
2018-01-27T17:13:50.499Z,24.60
2018-01-27T17:16:18.929Z,24.30
2018-01-27T17:18:47.416Z,24.50
2018-01-27T17:21:15.833Z,24.40
2018-01-27T17:23:44.238Z,23.87
2018-01-27T17:26:12.695Z,22.47
2018-01-27T17:28:41.129Z,26.10
2018-01-27T17:31:09.549Z,27.10
2018-01-27T17:33:37.981Z,26.57
2018-01-27T17:36:06.403Z,24.23
2018-01-27T17:38:34.813Z,23.70
2018-01-27T17:41:03.276Z,23.33
2018-01-27T17:43:31.669Z,23.10
2018-01-27T17:46:00.092Z,22.13
2018-01-27T17:48:28.594Z,23.17
2018-01-27T17:50:57.014Z,20.73
2018-01-27T17:53:25.418Z,21.80
2018-01-27T17:55:53.878Z,21.77
2018-01-27T17:58:22.320Z,22.27
2018-01-27T18:00:50.717Z,22.77
2018-01-27T18:03:19.214Z,22.93
2018-01-27T18:05:47.609Z,24.00
2018-01-27T18:08:16.041Z,21.97
2018-01-27T18:10:44.477Z,22.87
2018-01-27T18:13:12.880Z,24.13
2018-01-27T18:15:41.300Z,22.83
2018-01-27T18:18:09.801Z,24.73
2018-01-27T18:20:38.212Z,24.23
2018-01-27T18:23:06.642Z,26.43
2018-01-27T18:25:35.110Z,24.60
2018-01-27T18:28:03.528Z,23.57
2018-01-27T18:30:31.951Z,22.57
2018-01-27T18:33:00.398Z,23.93
2018-01-27T18:35:28.818Z,24.13
2018-01-27T18:37:57.217Z,23.57
2018-01-27T18:40:25.880Z,23.47
2018-01-27T18:42:54.277Z,23.77
2018-01-27T18:45:22.709Z,22.90
2018-01-27T18:47:51.176Z,23.33
2018-01-27T18:50:19.618Z,22.13
2018-01-27T18:52:48.041Z,23.63
2018-01-27T18:55:16.482Z,23.23
2018-01-27T18:57:44.905Z,22.70
2018-01-27T19:00:13.342Z,21.10
2018-01-27T19:02:41.801Z,23.40
2018-01-27T19:05:10.222Z,23.30
2018-01-27T19:07:38.633Z,24.40
2018-01-27T19:10:07.155Z,22.17
2018-01-27T19:12:35.601Z,21.63
2018-01-27T19:15:04.060Z,19.73
2018-01-27T19:17:32.548Z,21.23
2018-01-27T19:20:00.972Z,20.87
2018-01-27T19:22:29.373Z,20.43
2018-01-27T19:24:57.846Z,20.13
2018-01-27T19:27:26.255Z,17.87
2018-01-27T19:29:54.696Z,20.30
2018-01-27T19:32:23.201Z,20.17
2018-01-27T19:34:51.617Z,18.20
2018-01-27T19:37:20.028Z,17.93
2018-01-27T19:39:48.505Z,18.70
2018-01-27T19:42:16.907Z,18.63
2018-01-27T19:44:45.302Z,17.57
2018-01-27T19:47:13.781Z,17.90
2018-01-27T19:49:42.208Z,17.83
2018-01-27T19:52:10.655Z,17.43
2018-01-27T19:54:39.089Z,16.10
2018-01-27T19:57:07.508Z,17.93
2018-01-27T19:59:35.937Z,16.10
2018-01-27T20:02:04.386Z,16.27
2018-01-27T20:04:32.800Z,17.57
2018-01-27T20:07:01.194Z,18.37
2018-01-27T20:09:30.588Z,18.07
2018-01-27T20:11:58.993Z,16.97
2018-01-27T20:14:27.408Z,15.97
2018-01-27T20:16:55.848Z,15.23
2018-01-27T20:19:24.248Z,15.80
2018-01-27T20:21:52.659Z,15.20
2018-01-27T20:24:21.117Z,14.57
2018-01-27T20:26:49.528Z,13.83
2018-01-27T20:29:17.940Z,13.97
2018-01-27T20:31:46.391Z,13.77
2018-01-27T20:34:14.813Z,12.50
2018-01-27T20:36:43.209Z,13.00
2018-01-27T20:39:11.652Z,11.67
2018-01-27T20:41:40.081Z,11.90
2018-01-27T20:44:08.501Z,12.77
2018-01-27T20:46:36.957Z,11.40
2018-01-27T20:49:05.370Z,12.60
2018-01-27T20:51:33.826Z,12.53
2018-01-27T20:54:02.285Z,11.97
2018-01-27T20:56:30.733Z,11.63
2018-01-27T20:58:59.172Z,11.90
2018-01-27T21:01:27.645Z,12.93
2018-01-27T21:03:56.042Z,12.93
2018-01-27T21:06:24.497Z,11.93
2018-01-27T21:08:52.977Z,10.63
2018-01-27T21:11:21.403Z,9.83
2018-01-27T21:13:49.812Z,11.47
2018-01-27T21:16:18.296Z,10.67
2018-01-27T21:18:46.712Z,9.20
2018-01-27T21:21:15.111Z,10.10
2018-01-27T21:23:43.569Z,10.73
2018-01-27T21:26:12.003Z,9.00
2018-01-27T21:28:40.428Z,10.17
2018-01-27T21:31:08.876Z,9.17
2018-01-27T21:33:37.281Z,10.37
2018-01-27T21:36:05.693Z,9.73
2018-01-27T21:38:34.160Z,10.23
2018-01-27T21:41:02.612Z,10.40
2018-01-27T21:43:31.043Z,10.13
2018-01-27T21:45:59.506Z,10.60
2018-01-27T21:48:27.912Z,11.20
2018-01-27T21:50:56.321Z,10.43
2018-01-27T21:53:24.781Z,10.60
2018-01-27T21:55:53.195Z,10.50
2018-01-27T21:58:21.597Z,10.83
2018-01-27T22:00:50.049Z,11.30
2018-01-27T22:03:18.470Z,10.90
2018-01-27T22:05:46.881Z,11.00
2018-01-27T22:08:15.529Z,11.53
2018-01-27T22:10:43.943Z,11.40
2018-01-27T22:13:12.350Z,10.37
2018-01-27T22:18:15.549Z,9.70
2018-01-27T22:20:44.013Z,10.47
2018-01-27T22:23:12.443Z,10.30
2018-01-27T22:25:40.845Z,9.60
2018-01-27T22:28:09.289Z,9.67
2018-01-27T22:30:37.683Z,10.97
2018-01-27T22:33:06.089Z,8.57
2018-01-27T22:35:34.537Z,9.47
2018-01-27T22:38:02.935Z,10.23
2018-01-27T22:40:31.353Z,9.80
2018-01-27T22:42:59.801Z,11.80
2018-01-27T22:45:28.208Z,12.13
2018-01-27T22:47:56.627Z,8.57
2018-01-27T22:50:25.079Z,8.57
2018-01-27T22:52:53.480Z,9.13
2018-01-27T22:55:21.910Z,8.80
2018-01-27T22:57:50.356Z,7.93
2018-01-27T23:00:18.758Z,8.87
2018-01-27T23:02:47.181Z,8.70
2018-01-27T23:05:15.639Z,8.60
2018-01-27T23:07:44.029Z,7.23
2018-01-27T23:10:12.457Z,8.57
2018-01-27T23:12:40.936Z,8.90
2018-01-27T23:15:09.341Z,9.50
2018-01-27T23:17:37.752Z,9.37
2018-01-27T23:20:06.185Z,8.40
2018-01-27T23:22:34.581Z,8.20
2018-01-27T23:25:03.014Z,8.37
2018-01-27T23:27:31.456Z,7.23
2018-01-27T23:29:59.903Z,7.73
2018-01-27T23:32:28.297Z,8.53
2018-01-27T23:34:56.749Z,8.10
2018-01-27T23:37:25.181Z,8.73
2018-01-27T23:39:53.609Z,7.63
2018-01-27T23:42:22.089Z,7.20
2018-01-27T23:44:50.517Z,7.23
2018-01-27T23:47:18.946Z,7.23
2018-01-27T23:49:47.391Z,7.23
2018-01-27T23:52:15.823Z,6.73
2018-01-27T23:54:44.256Z,5.70
2018-01-27T23:57:12.730Z,6.10
2018-01-27T23:59:41.179Z,6.53
